KMHT/MHT METAR and TAF weather

Enter ICAO airport designator
Station Type Date Time Source
KMHT METAR 2024/06/15 23:53 UTC NOAA

KMHT 152353Z 34014KT 10SM CLR 21/03 A3003 RMK AO2 SLP180 T02110033 10250 20211 53018


Station Type Date Time Source
KMHT Decoded METAR 2024/06/15 23:53 UTC NOAA

MANCHESTER AIRPORT, NH, United States (KMHT) 42-56N 071-26W 81M
Jun 15, 2024 - 07:53 PM EDT / 2024.06.15 2353 UTC
Wind: from the NNW (340 degrees) at 16 MPH (14 KT):0
Visibility: 10 mile(s):0
Sky conditions: clear
Temperature: 70.0 F (21.1 C)
Dew Point: 37.9 F (3.3 C)
Relative Humidity: 30%
Pressure (altimeter): 30.03 in. Hg (1016 hPa)
Pressure tendency: 0.05 inches (1.8 hPa) higher than three hours ago
ob: KMHT 152353Z 34014KT 10SM CLR 21/03 A3003 RMK AO2 SLP180 T02110033 10250 20211 53018
cycle: 0

Station Type Date Time Source
KMHT TAF 2024/06/15 18:22 UTC NOAA